Time;durP1;ratioP1;P1;durP2;ratioP2;P2;SDS_P1;SDS_P2;PMS_P1;PMS_P2;Temp;Humidity;BMP_temperature;BMP_pressure;BME280_temperature;BME280_humidity;BME280_pressure;Samples;Min_cycle;Max_cycle;Signal;HPM_P1;HPM_P2
2021/06/03 00:00:29;;;;;;;9.80;9.00;;;14.20;67.40;;;;;;5200557;28;20132;-72
2021/06/03 00:03:01;;;;;;;10.05;9.25;;;14.30;67.10;;;;;;5200276;28;20074;-72
2021/06/03 00:05:55;;;;;;;10.20;9.40;;;14.20;67.70;;;;;;5184333;28;20053;-72
2021/06/03 00:08:28;;;;;;;9.90;9.10;;;14.20;67.70;;;;;;5202061;28;20917;-72
2021/06/03 00:11:04;;;;;;;10.07;9.23;;;14.20;67.90;;;;;;5198447;28;20088;-72
2021/06/03 00:13:38;;;;;;;9.60;8.70;;;14.10;67.90;;;;;;5200428;28;20790;-72
2021/06/03 00:16:16;;;;;;;9.55;8.75;;;14.20;67.30;;;;;;5185767;28;20508;-72
2021/06/03 00:18:48;;;;;;;9.55;8.75;;;14.10;67.40;;;;;;5174017;28;20056;-72
2021/06/03 00:21:20;;;;;;;9.68;8.80;;;14.10;68.00;;;;;;5201849;28;20099;-72
2021/06/03 00:23:52;;;;;;;9.73;8.82;;;14.00;67.90;;;;;;5185076;28;20094;-71
2021/06/03 00:26:24;;;;;;;10.02;9.18;;;14.10;67.90;;;;;;5206070;28;20432;-71
2021/06/03 00:28:56;;;;;;;9.90;9.10;;;14.00;67.80;;;;;;5202785;28;20107;-71
2021/06/03 00:31:28;;;;;;;10.25;9.35;;;14.00;67.90;;;;;;5204238;28;20132;-75
2021/06/03 00:34:01;;;;;;;10.15;9.18;;;14.00;67.90;;;;;;5190369;28;20057;-73
2021/06/03 00:36:33;;;;;;;10.50;9.60;;;14.00;68.30;;;;;;5202532;28;20131;-72
2021/06/03 00:39:06;;;;;;;10.27;9.38;;;13.90;68.70;;;;;;5203445;28;20069;-72
2021/06/03 00:41:38;;;;;;;10.32;9.43;;;13.90;69.60;;;;;;5203541;28;20118;-72
2021/06/03 00:44:11;;;;;;;10.55;9.55;;;13.90;68.90;;;;;;5184697;28;20536;-71
2021/06/03 00:46:43;;;;;;;10.82;9.82;;;13.80;69.20;;;;;;5184251;28;20599;-72
2021/06/03 00:49:15;;;;;;;10.40;9.50;;;13.80;69.70;;;;;;5169753;28;20045;-72
2021/06/03 00:51:47;;;;;;;10.60;9.70;;;13.70;70.20;;;;;;5204621;28;20042;-72
2021/06/03 00:54:20;;;;;;;10.13;9.18;;;13.60;70.90;;;;;;5200447;28;20073;-72
2021/06/03 00:56:57;;;;;;;10.20;9.23;;;13.60;70.40;;;;;;5186702;28;20037;-72
2021/06/03 00:59:29;;;;;;;10.35;9.55;;;13.70;69.90;;;;;;5185029;28;20042;-72
2021/06/03 01:02:02;;;;;;;10.50;9.60;;;13.70;69.70;;;;;;5170296;28;20260;-73
2021/06/03 01:04:37;;;;;;;10.95;9.93;;;13.70;69.70;;;;;;5171867;28;20041;-72
2021/06/03 01:07:09;;;;;;;10.30;9.30;;;13.60;70.00;;;;;;5185986;28;20580;-73
2021/06/03 01:10:03;;;;;;;10.68;9.77;;;13.60;69.20;;;;;;5185094;28;20037;-70
2021/06/03 01:13:02;;;;;;;10.70;9.77;;;13.60;69.10;;;;;;5183412;28;20049;-71
2021/06/03 01:15:36;;;;;;;10.95;9.98;;;13.60;70.00;;;;;;5202279;28;20057;-72
2021/06/03 01:18:09;;;;;;;11.45;10.25;;;13.50;70.40;;;;;;5204357;28;20041;-72
2021/06/03 01:20:45;;;;;;;10.82;9.93;;;13.40;70.40;;;;;;5200509;28;20037;-71
2021/06/03 01:23:26;;;;;;;10.50;9.50;;;13.40;69.90;;;;;;5163793;28;20623;-71
2021/06/03 01:25:59;;;;;;;10.40;9.57;;;13.40;70.70;;;;;;5198604;28;20041;-71
2021/06/03 01:28:33;;;;;;;10.55;9.65;;;13.40;70.90;;;;;;5163136;28;20046;-71
2021/06/03 01:31:06;;;;;;;10.77;9.75;;;13.30;71.20;;;;;;5184103;28;20102;-71
2021/06/03 01:33:41;;;;;;;11.02;10.13;;;13.30;71.10;;;;;;5168151;28;20098;-71
2021/06/03 01:36:15;;;;;;;11.02;10.13;;;13.20;71.40;;;;;;5198648;28;20127;-71
2021/06/03 01:38:48;;;;;;;11.43;10.52;;;13.30;71.50;;;;;;5191637;28;20037;-71
2021/06/03 01:41:22;;;;;;;11.20;10.20;;;13.20;71.40;;;;;;5159968;28;20103;-71
2021/06/03 01:43:54;;;;;;;11.18;10.27;;;13.20;71.20;;;;;;5173790;28;20045;-71
2021/06/03 01:46:26;;;;;;;11.13;10.20;;;13.30;71.10;;;;;;5184792;28;20057;-71
2021/06/03 01:49:04;;;;;;;10.75;9.75;;;13.30;71.00;;;;;;5203613;28;20049;-71
2021/06/03 01:51:36;;;;;;;11.05;10.05;;;13.30;71.30;;;;;;5184079;28;20045;-71
2021/06/03 01:54:08;;;;;;;11.27;10.30;;;13.20;71.10;;;;;;5181536;28;20139;-71
2021/06/03 01:56:41;;;;;;;11.18;10.27;;;13.20;71.40;;;;;;5165689;28;20045;-71
2021/06/03 01:59:15;;;;;;;11.38;10.38;;;13.10;72.80;;;;;;5164664;28;20662;-72
2021/06/03 02:01:47;;;;;;;10.88;9.98;;;13.00;71.90;;;;;;5181887;28;20045;-71
2021/06/03 02:04:19;;;;;;;11.13;10.13;;;13.00;71.60;;;;;;5183681;28;20378;-71
2021/06/03 02:06:52;;;;;;;11.10;10.00;;;13.00;71.70;;;;;;5180524;28;20591;-72
2021/06/03 02:09:26;;;;;;;10.98;9.98;;;13.00;72.20;;;;;;5186215;28;20056;-72
2021/06/03 02:12:01;;;;;;;11.02;10.13;;;12.90;72.60;;;;;;5195817;28;20143;-72
2021/06/03 02:14:40;;;;;;;10.57;9.68;;;12.90;72.50;;;;;;5185634;28;20054;-72
2021/06/03 02:17:19;;;;;;;11.07;10.18;;;12.90;72.50;;;;;;5203220;28;20053;-71
2021/06/03 02:20:23;;;;;;;11.23;10.25;;;12.80;73.00;;;;;;5185389;28;20436;-71
2021/06/03 02:22:56;;;;;;;11.10;10.00;;;12.80;72.40;;;;;;5203376;28;20049;-72
2021/06/03 02:25:29;;;;;;;10.90;10.00;;;12.80;72.50;;;;;;5201590;28;20157;-71
2021/06/03 02:28:03;;;;;;;11.35;10.25;;;12.80;72.90;;;;;;5183862;28;20049;-73
2021/06/03 02:30:36;;;;;;;11.60;10.68;;;12.70;72.70;;;;;;5200581;28;20125;-71
2021/06/03 02:33:08;;;;;;;11.23;10.32;;;12.70;74.00;;;;;;5200431;28;20076;-71
2021/06/03 02:35:45;;;;;;;10.93;10.02;;;12.60;73.20;;;;;;5202611;28;20132;-71
2021/06/03 02:38:23;;;;;;;10.60;9.80;;;12.70;73.00;;;;;;5200689;28;20107;-72
2021/06/03 02:40:59;;;;;;;10.70;9.80;;;12.70;72.60;;;;;;5179051;28;20051;-71
2021/06/03 02:43:35;;;;;;;11.25;10.30;;;12.70;73.80;;;;;;5183117;28;20732;-72
2021/06/03 02:46:09;;;;;;;10.70;9.75;;;12.70;72.90;;;;;;5181340;28;20045;-70
2021/06/03 02:48:41;;;;;;;10.98;10.07;;;12.70;73.30;;;;;;5183795;28;20123;-71
2021/06/03 02:51:14;;;;;;;10.88;9.90;;;12.70;72.90;;;;;;5181299;28;20640;-71
2021/06/03 02:53:47;;;;;;;11.05;10.15;;;12.70;72.70;;;;;;5183385;28;20084;-71
2021/06/03 02:56:26;;;;;;;10.70;9.80;;;12.70;72.90;;;;;;5172901;28;20811;-71
2021/06/03 02:58:58;;;;;;;11.27;10.30;;;12.60;72.50;;;;;;5202573;28;20043;-71
2021/06/03 03:01:30;;;;;;;11.68;10.63;;;12.60;73.70;;;;;;5186365;28;20049;-71
2021/06/03 03:04:03;;;;;;;11.70;10.70;;;12.50;73.80;;;;;;5183384;28;20519;-73
2021/06/03 03:06:35;;;;;;;10.93;10.00;;;12.50;74.20;;;;;;5204167;28;20292;-71
2021/06/03 03:09:08;;;;;;;10.82;9.93;;;12.50;73.80;;;;;;5181583;28;20140;-71
2021/06/03 03:11:41;;;;;;;11.05;10.15;;;12.50;73.90;;;;;;5183215;28;20088;-71
2021/06/03 03:14:13;;;;;;;11.38;10.38;;;12.50;74.00;;;;;;5200142;28;20052;-72
2021/06/03 03:16:46;;;;;;;11.77;9.93;;;12.50;73.70;;;;;;5184013;28;20048;-72
2021/06/03 03:19:19;;;;;;;10.95;10.02;;;12.50;73.90;;;;;;5165679;28;20533;-71
2021/06/03 03:21:51;;;;;;;10.73;9.73;;;12.50;74.20;;;;;;5199284;28;20056;-72
2021/06/03 03:24:24;;;;;;;11.05;9.98;;;12.50;74.10;;;;;;5185274;28;20063;-72
2021/06/03 03:26:56;;;;;;;11.88;10.00;;;12.50;74.40;;;;;;5183566;28;21046;-72
2021/06/03 03:29:28;;;;;;;11.38;10.27;;;12.50;74.30;;;;;;5202182;28;20045;-72
2021/06/03 03:32:00;;;;;;;10.77;9.77;;;12.40;74.40;;;;;;5200886;28;20985;-72
2021/06/03 03:34:32;;;;;;;10.82;9.93;;;12.50;75.00;;;;;;5201985;28;20456;-72
2021/06/03 03:37:05;;;;;;;11.40;10.32;;;12.40;74.20;;;;;;5199025;28;20048;-72
2021/06/03 03:39:40;;;;;;;11.00;10.02;;;12.40;74.50;;;;;;5182010;28;20557;-72
2021/06/03 03:42:12;;;;;;;10.38;9.45;;;12.40;75.20;;;;;;5198344;28;20047;-73
2021/06/03 03:44:44;;;;;;;11.82;10.82;;;12.30;75.80;;;;;;5183475;28;20632;-74
2021/06/03 03:47:16;;;;;;;10.77;9.88;;;12.40;75.00;;;;;;5200198;28;20045;-73
2021/06/03 03:49:48;;;;;;;10.90;9.90;;;12.40;74.50;;;;;;5202155;28;20093;-73
2021/06/03 03:52:22;;;;;;;11.60;9.50;;;12.40;74.80;;;;;;5197683;28;20056;-72
2021/06/03 03:54:54;;;;;;;10.32;9.32;;;12.40;74.90;;;;;;5199342;28;20422;-71
2021/06/03 03:57:27;;;;;;;10.60;9.63;;;12.40;74.30;;;;;;5201978;28;20521;-72
2021/06/03 04:00:01;;;;;;;10.10;9.23;;;12.40;74.00;;;;;;5186682;28;20558;-72
2021/06/03 04:02:35;;;;;;;9.63;8.73;;;12.40;74.00;;;;;;5181138;28;20470;-72
2021/06/03 04:05:08;;;;;;;10.77;9.68;;;12.40;74.60;;;;;;5182573;28;20052;-73
2021/06/03 04:07:40;;;;;;;10.60;9.70;;;12.40;75.40;;;;;;5183534;28;20049;-73
2021/06/03 04:10:17;;;;;;;11.18;10.07;;;12.30;75.00;;;;;;5180349;28;20053;-72
2021/06/03 04:12:50;;;;;;;10.90;9.80;;;12.30;75.20;;;;;;5179700;28;20429;-72
2021/06/03 04:15:23;;;;;;;10.80;9.80;;;12.30;75.60;;;;;;5170789;28;20045;-73
2021/06/03 04:17:56;;;;;;;11.88;9.77;;;12.30;76.70;;;;;;5182104;28;20038;-73
2021/06/03 04:20:29;;;;;;;10.65;9.75;;;12.40;76.50;;;;;;5198104;28;20117;-73
2021/06/03 04:23:03;;;;;;;10.52;9.60;;;12.40;76.10;;;;;;5200470;28;20648;-72
2021/06/03 04:25:39;;;;;;;9.93;8.98;;;12.40;76.70;;;;;;5178691;28;20045;-72
2021/06/03 04:28:11;;;;;;;10.88;9.77;;;12.50;76.00;;;;;;5199741;28;20111;-73
2021/06/03 04:30:45;;;;;;;10.40;9.50;;;12.60;75.50;;;;;;5200742;28;20473;-72
2021/06/03 04:33:20;;;;;;;10.60;9.70;;;12.60;76.10;;;;;;5200270;28;20041;-72
2021/06/03 04:35:55;;;;;;;11.10;10.10;;;12.70;75.70;;;;;;5199868;28;20045;-73
2021/06/03 04:38:28;;;;;;;10.43;9.52;;;12.80;74.90;;;;;;5182220;28;20065;-72
2021/06/03 04:41:00;;;;;;;10.77;9.77;;;13.00;74.20;;;;;;5182341;28;20481;-73
2021/06/03 04:43:33;;;;;;;10.82;9.82;;;13.20;75.60;;;;;;5198436;28;20049;-73
2021/06/03 04:46:05;;;;;;;11.20;10.18;;;13.30;75.20;;;;;;5200025;28;20046;-73
2021/06/03 04:48:37;;;;;;;11.00;9.63;;;13.40;75.30;;;;;;5181598;28;20049;-73
2021/06/03 04:51:09;;;;;;;11.38;10.38;;;13.60;75.50;;;;;;5195261;28;20050;-73
2021/06/03 04:53:41;;;;;;;10.65;9.75;;;13.80;75.60;;;;;;5197286;28;20034;-73
2021/06/03 04:56:13;;;;;;;11.00;10.07;;;13.90;75.30;;;;;;5198079;28;20053;-73
2021/06/03 04:58:45;;;;;;;10.70;9.63;;;14.00;74.70;;;;;;5200378;28;20041;-72
2021/06/03 05:01:17;;;;;;;10.60;9.60;;;14.00;74.50;;;;;;5196464;28;20583;-73
2021/06/03 05:03:49;;;;;;;10.82;9.93;;;14.00;74.20;;;;;;5200956;28;20424;-73
2021/06/03 05:06:21;;;;;;;10.85;9.95;;;13.90;75.40;;;;;;5186778;28;20250;-73
2021/06/03 05:08:53;;;;;;;10.38;9.48;;;14.00;75.50;;;;;;5201856;28;20046;-74
2021/06/03 05:11:25;;;;;;;10.30;9.40;;;14.10;75.40;;;;;;5197925;28;20041;-72
2021/06/03 05:13:57;;;;;;;11.57;10.52;;;14.10;76.10;;;;;;5201631;28;20029;-72
2021/06/03 05:16:29;;;;;;;11.18;10.18;;;14.20;75.80;;;;;;5202132;28;20049;-71
2021/06/03 05:19:01;;;;;;;11.00;10.10;;;14.20;76.10;;;;;;5203691;28;20613;-72
2021/06/03 05:21:35;;;;;;;11.20;10.20;;;14.30;75.80;;;;;;5183659;28;20047;-72
2021/06/03 05:24:07;;;;;;;10.88;9.77;;;14.30;77.00;;;;;;5202051;28;20512;-72
2021/06/03 05:26:39;;;;;;;10.27;9.27;;;14.30;74.40;;;;;;5202064;28;20128;-71
2021/06/03 05:29:14;;;;;;;10.50;9.60;;;14.40;71.90;;;;;;5203213;28;20520;-72
2021/06/03 05:31:53;;;;;;;11.27;10.35;;;14.50;76.30;;;;;;5182860;28;20076;-71
2021/06/03 05:34:26;;;;;;;11.95;10.75;;;14.60;76.50;;;;;;5200587;28;20037;-72
2021/06/03 05:36:58;;;;;;;11.43;10.32;;;14.70;76.70;;;;;;5198891;28;20029;-71
2021/06/03 05:39:30;;;;;;;10.93;9.82;;;14.80;77.50;;;;;;5205401;28;20045;-71
2021/06/03 05:42:02;;;;;;;11.25;10.32;;;14.90;76.30;;;;;;5200529;28;20132;-71
2021/06/03 05:44:34;;;;;;;11.43;10.43;;;15.00;77.40;;;;;;5183257;28;20188;-72
2021/06/03 05:47:06;;;;;;;10.80;9.90;;;15.10;76.80;;;;;;5200567;28;20092;-71
2021/06/03 05:49:38;;;;;;;11.43;10.35;;;15.20;76.50;;;;;;5202301;28;20594;-73
2021/06/03 05:52:10;;;;;;;11.70;10.60;;;15.20;75.60;;;;;;5201964;28;20715;-74
2021/06/03 05:54:42;;;;;;;11.65;10.52;;;15.30;75.90;;;;;;5203564;28;20042;-74
2021/06/03 05:57:14;;;;;;;10.40;9.30;;;15.30;76.00;;;;;;5186090;28;20053;-76
2021/06/03 05:59:46;;;;;;;10.35;8.77;;;15.40;76.80;;;;;;5201849;28;20130;-76
2021/06/03 06:02:24;;;;;;;9.68;8.77;;;15.40;75.40;;;;;;5181977;28;20146;-78
2021/06/03 06:07:46;;;;;;;;;;;15.40;75.10;;;;;;5202960;28;20041;-74
2021/06/03 06:10:18;;;;;;;9.68;8.77;;;15.60;74.80;;;;;;5200647;28;20024;-76
2021/06/03 06:12:50;;;;;;;9.60;8.73;;;15.90;74.30;;;;;;5174590;28;20091;-76
2021/06/03 06:15:22;;;;;;;9.68;8.65;;;16.00;72.80;;;;;;5182865;28;20041;-75
2021/06/03 06:17:54;;;;;;;10.93;9.85;;;16.20;71.90;;;;;;5200490;28;20060;-75
2021/06/03 06:20:27;;;;;;;10.98;9.98;;;16.40;71.70;;;;;;5200679;28;20072;-75
2021/06/03 06:23:00;;;;;;;9.90;9.00;;;16.60;70.20;;;;;;5183855;28;20564;-75
2021/06/03 06:25:33;;;;;;;9.95;9.00;;;16.70;71.20;;;;;;5199327;28;20128;-75
2021/06/03 06:28:05;;;;;;;10.40;9.40;;;16.90;69.50;;;;;;5199309;28;20048;-76
2021/06/03 06:30:37;;;;;;;10.05;9.25;;;17.10;69.60;;;;;;5199575;28;20130;-76
2021/06/03 06:33:09;;;;;;;10.05;9.05;;;17.10;66.10;;;;;;5199978;28;20072;-75
2021/06/03 06:35:44;;;;;;;10.90;9.85;;;17.30;65.50;;;;;;5180405;28;20652;-77
2021/06/03 06:38:18;;;;;;;10.55;9.65;;;17.50;67.40;;;;;;5201472;28;20049;-78
2021/06/03 06:40:51;;;;;;;14.82;9.82;;;17.60;65.60;;;;;;5181543;28;20115;-76
2021/06/03 06:43:23;;;;;;;11.00;10.00;;;17.70;63.50;;;;;;5199011;28;20136;-76
2021/06/03 06:45:56;;;;;;;11.27;10.18;;;17.80;64.20;;;;;;5198518;28;20111;-73
2021/06/03 06:48:28;;;;;;;14.10;9.98;;;18.00;64.90;;;;;;5200597;28;20152;-71
2021/06/03 06:51:01;;;;;;;10.25;9.13;;;18.20;63.80;;;;;;5181160;28;20041;-71
2021/06/03 06:53:33;;;;;;;9.85;8.95;;;18.30;60.70;;;;;;5158416;28;20040;-71
2021/06/03 06:56:05;;;;;;;9.82;8.93;;;18.40;61.50;;;;;;5183310;28;20042;-71
2021/06/03 06:58:39;;;;;;;9.95;9.05;;;18.50;61.00;;;;;;5200048;28;20690;-72
2021/06/03 07:01:11;;;;;;;9.80;8.90;;;18.60;62.30;;;;;;5200606;28;20048;-72
2021/06/03 07:03:43;;;;;;;10.15;9.18;;;18.80;61.60;;;;;;5195209;28;20070;-69
2021/06/03 07:06:14;;;;;;;10.55;9.55;;;18.90;57.50;;;;;;5193291;28;20041;-70
2021/06/03 07:08:46;;;;;;;9.90;9.10;;;19.00;58.60;;;;;;5203633;28;20061;-70
2021/06/03 07:11:18;;;;;;;10.80;9.80;;;19.10;57.60;;;;;;5194915;28;20104;-71
2021/06/03 07:13:51;;;;;;;10.00;9.20;;;19.20;57.90;;;;;;5203492;28;20040;-73
2021/06/03 07:16:23;;;;;;;9.93;9.02;;;19.40;59.20;;;;;;5181169;28;20065;-72
2021/06/03 07:18:55;;;;;;;9.88;9.02;;;19.50;56.60;;;;;;5200533;28;20123;-70
2021/06/03 07:21:27;;;;;;;10.55;9.50;;;19.60;61.20;;;;;;5181174;28;20045;-71
2021/06/03 07:23:59;;;;;;;10.85;9.85;;;19.80;58.90;;;;;;5188890;28;20222;-71
2021/06/03 07:26:31;;;;;;;10.80;9.88;;;19.90;57.00;;;;;;5200431;28;20037;-72
2021/06/03 07:29:05;;;;;;;10.70;9.80;;;20.00;56.00;;;;;;5200428;28;20110;-72
2021/06/03 07:31:38;;;;;;;10.50;9.60;;;20.10;57.70;;;;;;5199070;28;20547;-72
2021/06/03 07:34:10;;;;;;;10.10;9.10;;;20.20;60.80;;;;;;5201367;28;20582;-74
2021/06/03 07:36:41;;;;;;;10.45;9.57;;;20.30;53.40;;;;;;5203316;28;20076;-73
2021/06/03 07:39:14;;;;;;;11.50;10.30;;;20.40;53.00;;;;;;5201438;28;20210;-73
2021/06/03 07:41:45;;;;;;;10.60;9.60;;;20.50;59.20;;;;;;5200625;28;20053;-73
2021/06/03 07:44:18;;;;;;;10.57;9.63;;;20.60;59.60;;;;;;5198734;28;20492;-74
2021/06/03 07:46:50;;;;;;;10.30;9.40;;;20.70;58.20;;;;;;5182741;28;20044;-73
2021/06/03 07:49:22;;;;;;;11.00;10.10;;;20.80;58.30;;;;;;5200273;28;20098;-73
2021/06/03 07:51:54;;;;;;;11.60;10.60;;;20.90;58.30;;;;;;5198606;28;20132;-73
2021/06/03 07:54:26;;;;;;;11.20;10.27;;;21.10;57.70;;;;;;5200499;28;20543;-72
2021/06/03 07:56:58;;;;;;;11.57;10.57;;;21.20;60.80;;;;;;5196879;28;20140;-73
2021/06/03 07:59:30;;;;;;;10.63;9.70;;;21.30;57.40;;;;;;5202590;28;20110;-73
2021/06/03 08:02:03;;;;;;;10.13;9.32;;;21.30;57.80;;;;;;5197139;28;20049;-73
2021/06/03 08:04:35;;;;;;;10.77;9.63;;;21.40;58.20;;;;;;5201978;28;20037;-73
2021/06/03 08:07:07;;;;;;;11.00;10.00;;;21.50;58.90;;;;;;5199819;28;20077;-73
2021/06/03 08:09:41;;;;;;;11.15;10.18;;;21.50;59.60;;;;;;5182813;28;20037;-72
2021/06/03 08:12:13;;;;;;;11.23;10.30;;;21.60;56.30;;;;;;5197494;28;20627;-73
2021/06/03 08:14:45;;;;;;;11.27;10.38;;;21.70;59.50;;;;;;5187342;28;20144;-72
2021/06/03 08:17:17;;;;;;;11.50;10.50;;;21.80;58.50;;;;;;5179062;28;20076;-72
2021/06/03 08:19:49;;;;;;;10.88;10.07;;;21.80;58.10;;;;;;5195095;28;20045;-72
2021/06/03 08:22:21;;;;;;;11.85;10.80;;;21.90;58.60;;;;;;5198144;28;20128;-72
2021/06/03 08:24:53;;;;;;;11.55;10.55;;;22.00;57.70;;;;;;5201101;28;20046;-72
2021/06/03 08:27:25;;;;;;;11.43;10.48;;;22.10;57.50;;;;;;5197643;28;20103;-73
2021/06/03 08:29:57;;;;;;;11.65;10.65;;;22.20;58.70;;;;;;5200521;28;20612;-73
2021/06/03 08:32:29;;;;;;;11.85;10.75;;;22.30;57.20;;;;;;5200812;28;20037;-73
2021/06/03 08:35:01;;;;;;;11.65;10.75;;;22.30;58.00;;;;;;5200355;28;20157;-74
2021/06/03 08:37:33;;;;;;;11.32;10.43;;;22.40;57.00;;;;;;5199516;28;20045;-73
2021/06/03 08:40:05;;;;;;;11.20;10.30;;;22.50;58.60;;;;;;5179435;28;20107;-73
2021/06/03 08:42:38;;;;;;;10.93;10.02;;;22.60;56.60;;;;;;5182558;28;20127;-73
2021/06/03 08:45:14;;;;;;;10.85;9.98;;;22.60;56.90;;;;;;5200538;28;20068;-73
2021/06/03 08:47:47;;;;;;;11.15;10.18;;;22.70;56.10;;;;;;5204251;28;20087;-72
2021/06/03 08:50:20;;;;;;;10.68;9.77;;;22.80;57.20;;;;;;5186841;28;20128;-72
2021/06/03 08:52:53;;;;;;;10.38;9.52;;;22.80;56.30;;;;;;5202163;28;20081;-72
2021/06/03 08:58:20;;;;;;;10.88;9.88;;;22.90;54.80;;;;;;5203556;28;20057;-73
2021/06/03 09:00:54;;;;;;;10.82;9.95;;;23.00;53.70;;;;;;5203294;28;20095;-73
2021/06/03 09:03:28;;;;;;;11.25;10.25;;;23.00;52.10;;;;;;5203021;28;20144;-72
2021/06/03 09:06:01;;;;;;;11.60;10.60;;;23.00;53.80;;;;;;5202062;28;20098;-73
2021/06/03 09:08:35;;;;;;;11.73;10.70;;;23.10;53.30;;;;;;5200519;28;20037;-74
2021/06/03 09:11:15;;;;;;;11.40;10.40;;;23.20;53.80;;;;;;5183960;28;20065;-73
2021/06/03 09:13:52;;;;;;;11.40;10.40;;;23.40;52.70;;;;;;5187855;28;20041;-72
2021/06/03 09:16:28;;;;;;;11.13;10.23;;;23.40;54.20;;;;;;5203253;28;20453;-72
2021/06/03 09:19:09;;;;;;;11.20;10.30;;;23.50;55.80;;;;;;5202704;28;20049;-73
2021/06/03 09:21:52;;;;;;;11.60;10.70;;;23.60;53.80;;;;;;5189059;28;20050;-73
2021/06/03 09:24:30;;;;;;;11.85;10.68;;;23.70;51.70;;;;;;5205460;28;20471;-73
2021/06/03 09:27:03;;;;;;;11.43;10.43;;;23.70;53.00;;;;;;5200233;28;20083;-72
2021/06/03 09:29:36;;;;;;;11.60;10.63;;;23.80;53.50;;;;;;5201261;28;20118;-72
2021/06/03 09:32:11;;;;;;;12.25;11.05;;;24.00;50.20;;;;;;5203951;28;20073;-73
2021/06/03 09:34:54;;;;;;;11.88;10.88;;;24.00;53.90;;;;;;5204194;28;20120;-73
2021/06/03 09:37:35;;;;;;;11.27;10.35;;;24.10;54.10;;;;;;5200686;28;20045;-72
2021/06/03 09:40:18;;;;;;;11.88;10.98;;;24.20;53.60;;;;;;5201368;28;20084;-72
2021/06/03 09:43:11;;;;;;;11.95;10.95;;;24.10;49.60;;;;;;5201534;28;20386;-72
2021/06/03 09:46:15;;;;;;;11.32;10.45;;;24.10;48.60;;;;;;5201834;28;20584;-72
2021/06/03 09:48:48;;;;;;;12.00;11.00;;;24.20;50.90;;;;;;5193171;28;20062;-73
2021/06/03 09:51:27;;;;;;;12.20;11.20;;;24.40;48.00;;;;;;5203111;28;20131;-73
2021/06/03 09:54:02;;;;;;;12.52;11.30;;;24.50;50.80;;;;;;5201259;28;20563;-72
2021/06/03 09:56:37;;;;;;;11.50;10.60;;;24.50;52.80;;;;;;5198376;28;20050;-73
2021/06/03 09:59:32;;;;;;;12.10;11.02;;;24.60;51.70;;;;;;5202022;28;20091;-74
2021/06/03 10:02:04;;;;;;;12.07;11.07;;;24.60;51.20;;;;;;5204760;28;20149;-73
2021/06/03 10:04:40;;;;;;;11.55;10.65;;;24.70;51.20;;;;;;5173413;28;20117;-72
2021/06/03 10:07:16;;;;;;;11.50;10.50;;;24.80;51.90;;;;;;5145594;28;20041;-73
2021/06/03 10:09:51;;;;;;;11.98;11.07;;;24.80;49.70;;;;;;5188363;28;20022;-73
2021/06/03 10:12:22;;;;;;;12.55;11.40;;;24.90;50.80;;;;;;5201380;28;20045;-73
2021/06/03 10:14:57;;;;;;;11.68;10.73;;;24.90;51.90;;;;;;5201474;28;20041;-73
2021/06/03 10:17:32;;;;;;;11.82;10.93;;;24.90;50.30;;;;;;5201676;28;20126;-72
2021/06/03 10:20:11;;;;;;;12.18;11.27;;;24.90;48.60;;;;;;5202946;28;20049;-72
2021/06/03 10:22:52;;;;;;;12.60;11.45;;;24.80;53.30;;;;;;5201185;28;20052;-73
2021/06/03 10:25:26;;;;;;;12.40;11.30;;;24.90;50.40;;;;;;5200085;28;20065;-72
2021/06/03 10:28:05;;;;;;;15.07;13.60;;;24.90;51.10;;;;;;5201712;28;20412;-72
2021/06/03 10:30:44;;;;;;;11.77;10.83;;;25.00;51.30;;;;;;5199601;28;20041;-73
2021/06/03 10:33:19;;;;;;;11.43;10.52;;;25.10;52.30;;;;;;5200390;28;20061;-73
2021/06/03 10:35:54;;;;;;;11.77;10.75;;;25.10;51.30;;;;;;5184639;28;20091;-73
2021/06/03 10:38:27;;;;;;;11.88;10.88;;;25.20;47.80;;;;;;5203862;28;20113;-73
2021/06/03 10:41:02;;;;;;;11.98;10.98;;;25.30;52.50;;;;;;5182571;28;20037;-73
2021/06/03 10:43:37;;;;;;;12.30;11.30;;;25.40;48.60;;;;;;5199963;28;20044;-72
2021/06/03 10:46:09;;;;;;;11.85;10.95;;;25.50;48.40;;;;;;5205188;28;20046;-73
2021/06/03 10:48:41;;;;;;;12.07;11.05;;;25.60;47.90;;;;;;5199722;28;20049;-74
2021/06/03 10:51:14;;;;;;;12.50;11.50;;;25.70;52.00;;;;;;5199431;28;20394;-72
2021/06/03 10:53:47;;;;;;;13.18;12.18;;;25.70;48.80;;;;;;5183563;28;20667;-73
2021/06/03 10:56:22;;;;;;;12.77;11.70;;;25.70;49.80;;;;;;5198437;28;20061;-74
2021/06/03 10:58:55;;;;;;;12.52;11.52;;;25.90;50.70;;;;;;5202035;28;20123;-73
2021/06/03 11:01:27;;;;;;;12.35;11.35;;;25.90;48.40;;;;;;5199702;28;20451;-73
2021/06/03 11:04:05;;;;;;;12.32;11.23;;;25.70;48.90;;;;;;5184045;28;20530;-73
2021/06/03 11:06:44;;;;;;;12.48;11.45;;;25.50;48.90;;;;;;5200771;28;20041;-73
2021/06/03 11:09:25;;;;;;;12.55;11.57;;;25.70;49.10;;;;;;5183021;28;20033;-73
2021/06/03 11:12:10;;;;;;;12.68;11.68;;;26.00;49.50;;;;;;5196838;28;20148;-72
2021/06/03 11:14:58;;;;;;;12.38;11.38;;;26.30;50.10;;;;;;5167083;28;20041;-74
2021/06/03 11:17:53;;;;;;;13.20;12.10;;;26.50;46.80;;;;;;5200945;28;20144;-72
2021/06/03 11:20:34;;;;;;;12.68;11.60;;;26.40;49.50;;;;;;5200685;28;20595;-72
2021/06/03 11:23:34;;;;;;;12.45;11.45;;;26.20;43.10;;;;;;5199587;28;20085;-73
2021/06/03 11:26:06;;;;;;;13.00;11.98;;;26.10;47.00;;;;;;5203371;28;20469;-72
2021/06/03 11:28:38;;;;;;;12.88;11.77;;;26.10;51.60;;;;;;5201850;28;20073;-73
2021/06/03 11:31:22;;;;;;;12.65;11.65;;;26.20;53.30;;;;;;5196476;28;20045;-72
2021/06/03 11:34:32;;;;;;;12.88;11.88;;;26.30;49.10;;;;;;5183978;28;20447;-73
2021/06/03 11:37:12;;;;;;;13.57;12.57;;;26.40;49.40;;;;;;5199535;28;20132;-73
2021/06/03 11:39:56;;;;;;;13.30;12.30;;;26.60;48.40;;;;;;5183244;28;20128;-73
2021/06/03 11:42:31;;;;;;;13.55;12.55;;;26.60;47.90;;;;;;5197228;28;20041;-73
2021/06/03 11:45:15;;;;;;;12.88;11.98;;;26.60;48.70;;;;;;5201095;28;20033;-72
2021/06/03 11:47:47;;;;;;;13.90;12.48;;;26.60;46.60;;;;;;5198942;28;20053;-73
2021/06/03 11:50:19;;;;;;;13.13;12.13;;;26.60;47.80;;;;;;5200269;28;20045;-72
2021/06/03 11:52:55;;;;;;;13.15;12.05;;;26.50;47.10;;;;;;5199733;28;20811;-72
2021/06/03 11:55:49;;;;;;;13.05;11.98;;;26.40;48.60;;;;;;5198901;28;20044;-73
2021/06/03 11:58:26;;;;;;;12.98;11.95;;;26.30;49.30;;;;;;5199024;28;20130;-73
2021/06/03 12:01:03;;;;;;;12.68;11.77;;;26.20;48.60;;;;;;5196047;28;20168;-73
2021/06/03 12:03:44;;;;;;;12.40;11.50;;;26.30;45.30;;;;;;5198058;28;20045;-72
2021/06/03 12:06:38;;;;;;;12.73;11.82;;;26.30;46.70;;;;;;5197661;28;20088;-73
2021/06/03 12:09:20;;;;;;;12.88;11.88;;;26.30;48.70;;;;;;5183534;28;20788;-72
2021/06/03 12:11:54;;;;;;;13.00;12.00;;;26.20;48.70;;;;;;5198607;28;20049;-72
2021/06/03 12:14:29;;;;;;;12.80;11.80;;;26.30;49.00;;;;;;5201098;28;20613;-73
2021/06/03 12:17:08;;;;;;;12.40;11.30;;;26.20;47.20;;;;;;5198951;28;20049;-71
2021/06/03 12:19:45;;;;;;;12.38;11.48;;;26.00;44.20;;;;;;5198079;28;20045;-72
2021/06/03 12:22:20;;;;;;;12.80;11.77;;;26.00;44.80;;;;;;5203503;28;20056;-72
2021/06/03 12:24:56;;;;;;;13.63;12.40;;;26.20;48.90;;;;;;5204050;28;20042;-71
2021/06/03 12:27:37;;;;;;;12.90;11.90;;;26.40;49.50;;;;;;5162732;28;20041;-72
2021/06/03 12:30:36;;;;;;;13.30;12.30;;;26.70;43.10;;;;;;5177755;28;20049;-72
2021/06/03 12:33:12;;;;;;;12.95;11.95;;;26.90;45.00;;;;;;5183358;28;20100;-72
2021/06/03 12:35:49;;;;;;;13.25;12.25;;;27.10;45.60;;;;;;5185675;28;20920;-72
2021/06/03 12:38:36;;;;;;;13.95;12.75;;;27.20;46.20;;;;;;5210452;28;20479;-72
2021/06/03 12:41:31;;;;;;;13.48;12.48;;;27.30;46.80;;;;;;5202378;28;20539;-71
2021/06/03 12:44:10;;;;;;;13.77;12.60;;;27.40;43.60;;;;;;5205024;28;20521;-72
2021/06/03 12:46:53;;;;;;;13.52;12.52;;;27.50;48.20;;;;;;5207225;28;20521;-72
2021/06/03 12:49:28;;;;;;;13.00;12.02;;;27.40;47.00;;;;;;5204476;28;20095;-71
2021/06/03 12:52:05;;;;;;;13.15;12.18;;;27.40;47.70;;;;;;5202418;28;20103;-71
2021/06/03 12:54:41;;;;;;;13.88;12.88;;;27.20;47.10;;;;;;5203191;28;20062;-71
2021/06/03 12:57:17;;;;;;;13.95;12.95;;;27.20;44.30;;;;;;5203402;28;20038;-71
2021/06/03 12:59:52;;;;;;;13.77;12.77;;;27.10;47.70;;;;;;5203033;28;20049;-72
2021/06/03 13:02:31;;;;;;;13.90;12.80;;;27.00;47.30;;;;;;5201055;28;20366;-71
2021/06/03 13:05:09;;;;;;;13.82;12.73;;;26.80;47.00;;;;;;5202854;28;20045;-71
2021/06/03 13:07:44;;;;;;;13.75;12.75;;;26.70;48.30;;;;;;5201194;28;20567;-71
2021/06/03 13:10:21;;;;;;;13.68;12.55;;;26.60;47.50;;;;;;5184907;28;20084;-71
2021/06/03 13:12:57;;;;;;;14.15;12.95;;;26.50;45.70;;;;;;5203430;28;20937;-70
2021/06/03 13:15:30;;;;;;;13.85;12.82;;;26.40;46.00;;;;;;5203830;28;20114;-71
2021/06/03 13:18:05;;;;;;;13.48;12.48;;;26.30;46.50;;;;;;5201804;28;20057;-71